createdAt,value
2023-05-21T00:00:43.289Z,23.6
2023-05-21T00:01:45.185Z,23.6
2023-05-21T00:02:46.824Z,23.6
2023-05-21T00:03:49.249Z,23.6
2023-05-21T00:04:51.961Z,23.6
2023-05-21T00:05:53.747Z,23.6
2023-05-21T00:06:55.529Z,23.6
2023-05-21T00:07:57.274Z,23.6
2023-05-21T00:08:59.134Z,23.6
2023-05-21T00:10:01.135Z,23.7
2023-05-21T00:11:02.737Z,23.6
2023-05-21T00:12:04.576Z,23.6
2023-05-21T00:13:06.196Z,23.6
2023-05-21T00:14:08.066Z,23.6
2023-05-21T00:15:09.872Z,23.6
2023-05-21T00:16:11.894Z,23.6
2023-05-21T00:17:13.818Z,23.6
2023-05-21T00:18:15.732Z,23.6
2023-05-21T00:19:17.543Z,23.6
2023-05-21T00:20:19.737Z,23.6
2023-05-21T00:21:21.414Z,23.6
2023-05-21T00:22:23.251Z,23.6
2023-05-21T00:23:25.031Z,23.6
2023-05-21T00:24:26.848Z,23.6
2023-05-21T00:25:28.639Z,23.6
2023-05-21T00:26:30.239Z,23.5
2023-05-21T00:27:34.746Z,23.6
2023-05-21T00:28:36.388Z,23.5
2023-05-21T00:29:37.964Z,23.5
2023-05-21T00:30:39.721Z,23.5
2023-05-21T00:31:41.615Z,23.5
2023-05-21T00:32:43.868Z,23.5
2023-05-21T00:33:46.088Z,23.5
2023-05-21T00:34:47.982Z,23.5
2023-05-21T00:35:49.591Z,23.5
2023-05-21T00:36:51.301Z,23.5
2023-05-21T00:37:53.145Z,23.5
2023-05-21T00:38:55.015Z,23.5
2023-05-21T00:39:58.240Z,23.5
2023-05-21T00:41:00.179Z,23.5
2023-05-21T00:42:01.991Z,23.5
2023-05-21T00:43:03.923Z,23.5
2023-05-21T00:44:05.517Z,23.5
2023-05-21T00:45:07.122Z,23.5
2023-05-21T00:46:08.880Z,23.5
2023-05-21T00:47:10.859Z,23.4
2023-05-21T00:48:12.717Z,23.5
2023-05-21T00:49:14.336Z,23.5
2023-05-21T00:50:16.141Z,23.4
2023-05-21T00:51:18.096Z,23.4
2023-05-21T00:52:20.427Z,23.4
2023-05-21T00:53:22.278Z,23.4
2023-05-21T00:54:24.111Z,23.4
2023-05-21T00:55:25.735Z,23.4
2023-05-21T00:56:27.962Z,23.4
2023-05-21T00:57:30.186Z,23.4
2023-05-21T00:58:32.014Z,23.4
2023-05-21T00:59:33.874Z,23.4
2023-05-21T01:00:35.630Z,23.4
2023-05-21T01:01:37.543Z,23.4
2023-05-21T01:02:39.626Z,23.4
2023-05-21T01:03:42.017Z,23.4
2023-05-21T01:04:44.032Z,23.4
2023-05-21T01:05:45.845Z,23.4
2023-05-21T01:06:47.797Z,23.4
2023-05-21T01:07:49.771Z,23.4
2023-05-21T01:08:51.414Z,23.4
2023-05-21T01:09:53.320Z,23.4
2023-05-21T01:10:54.898Z,23.4
2023-05-21T01:11:56.814Z,23.4
2023-05-21T01:12:58.556Z,23.4
2023-05-21T01:14:00.151Z,23.4
2023-05-21T01:15:01.846Z,23.4
2023-05-21T01:16:03.675Z,23.4
2023-05-21T01:17:05.435Z,23.4
2023-05-21T01:18:07.432Z,23.4
2023-05-21T01:19:09.424Z,23.4
2023-05-21T01:20:11.909Z,23.4
2023-05-21T01:21:13.905Z,23.4
2023-05-21T01:22:15.898Z,23.3
2023-05-21T01:23:17.750Z,23.3
2023-05-21T01:24:19.446Z,23.4
2023-05-21T01:25:21.169Z,23.4
2023-05-21T01:26:22.988Z,23.4
2023-05-21T01:27:24.654Z,23.4
2023-05-21T01:28:26.494Z,23.4
2023-05-21T01:29:28.195Z,23.4
2023-05-21T01:30:29.908Z,23.4
2023-05-21T01:31:31.594Z,23.3
2023-05-21T01:32:33.518Z,23.3
2023-05-21T01:33:35.722Z,23.3
2023-05-21T01:34:38.240Z,23.3
2023-05-21T01:35:41.997Z,23.3
2023-05-21T01:36:43.945Z,23.3
2023-05-21T01:37:45.731Z,23.3
2023-05-21T01:38:47.549Z,23.3
2023-05-21T01:39:49.509Z,23.3
2023-05-21T01:40:51.193Z,23.3
2023-05-21T01:41:52.803Z,23.3
2023-05-21T01:42:54.644Z,23.3
2023-05-21T01:43:56.485Z,23.3
2023-05-21T01:44:58.434Z,23.3
2023-05-21T01:46:00.106Z,23.3
2023-05-21T01:47:02.064Z,23.3
2023-05-21T01:48:04.074Z,23.3
2023-05-21T01:49:06.189Z,23.3
2023-05-21T01:50:08.105Z,23.3
2023-05-21T01:51:09.964Z,23.3
2023-05-21T01:52:11.643Z,23.3
2023-05-21T01:53:13.552Z,23.3
2023-05-21T01:54:15.406Z,23.3
2023-05-21T01:55:17.047Z,23.3
2023-05-21T01:56:18.686Z,23.3
2023-05-21T01:57:20.546Z,23.3
2023-05-21T01:58:22.361Z,23.3
2023-05-21T01:59:23.955Z,23.3
2023-05-21T02:00:25.778Z,23.2
2023-05-21T02:01:27.382Z,23.3
2023-05-21T02:02:29.210Z,23.3
2023-05-21T02:03:31.751Z,23.3
2023-05-21T02:04:34.104Z,23.3
2023-05-21T02:05:36.126Z,23.3
2023-05-21T02:06:39.152Z,23.3
2023-05-21T02:07:40.810Z,23.3
2023-05-21T02:08:42.544Z,23.3
2023-05-21T02:09:44.305Z,23.3
2023-05-21T02:10:45.975Z,23.3
2023-05-21T02:11:47.661Z,23.3
2023-05-21T02:12:49.457Z,23.2
2023-05-21T02:13:51.290Z,23.2
2023-05-21T02:14:53.186Z,23.2
2023-05-21T02:15:55.230Z,23.2
2023-05-21T02:16:57.176Z,23.2
2023-05-21T02:17:59.102Z,23.2
2023-05-21T02:19:01.209Z,23.2
2023-05-21T02:20:03.096Z,23.2
2023-05-21T02:21:04.831Z,23.2
2023-05-21T02:22:06.681Z,23.2
2023-05-21T02:23:08.531Z,23.2
2023-05-21T02:24:10.164Z,23.2
2023-05-21T02:25:12.138Z,23.2
2023-05-21T02:26:14.123Z,23.2
2023-05-21T02:27:16.048Z,23.2
2023-05-21T02:28:17.896Z,23.2
2023-05-21T02:29:19.801Z,23.2
2023-05-21T02:30:21.698Z,23.2
2023-05-21T02:31:23.580Z,23.2
2023-05-21T02:32:25.474Z,23.1
2023-05-21T02:33:27.490Z,23.1
2023-05-21T02:34:29.132Z,23.1
2023-05-21T02:35:31.012Z,23.1
2023-05-21T02:36:32.690Z,23.1
2023-05-21T02:37:34.296Z,23.1
2023-05-21T02:38:36.284Z,23.2
2023-05-21T02:39:37.900Z,23.1
2023-05-21T02:40:40.052Z,23.1
2023-05-21T02:41:41.997Z,23.1
2023-05-21T02:42:43.994Z,23.1
2023-05-21T02:43:45.846Z,23.1
2023-05-21T02:44:47.534Z,23.1
2023-05-21T02:45:49.138Z,23.1
2023-05-21T02:46:50.840Z,23.1
2023-05-21T02:47:52.872Z,23.1
2023-05-21T02:48:57.665Z,23.1
2023-05-21T02:49:59.497Z,23.1
2023-05-21T02:51:01.106Z,23.1
2023-05-21T02:52:03.060Z,23.1
2023-05-21T02:53:04.952Z,23.1
2023-05-21T02:54:06.622Z,23.1
2023-05-21T02:55:08.262Z,23.1
2023-05-21T02:56:10.055Z,23.1
2023-05-21T02:57:12.221Z,23.1
2023-05-21T02:58:14.099Z,23.1
2023-05-21T02:59:15.695Z,23.1
2023-05-21T03:00:17.323Z,23.1
2023-05-21T03:01:19.025Z,23.1
2023-05-21T03:02:21.186Z,23.1
2023-05-21T03:03:23.624Z,23.1
2023-05-21T03:04:26.030Z,23.1
2023-05-21T03:05:27.632Z,23.1
2023-05-21T03:06:29.288Z,23.1
2023-05-21T03:07:30.927Z,23.1
2023-05-21T03:08:32.575Z,23.1
2023-05-21T03:09:34.262Z,23.1
2023-05-21T03:10:35.890Z,23.1
2023-05-21T03:11:37.533Z,23.1
2023-05-21T03:12:39.187Z,23.1
2023-05-21T03:13:40.870Z,23.1
2023-05-21T03:14:42.893Z,23.1
2023-05-21T03:15:44.729Z,23.1
2023-05-21T03:16:46.602Z,23.1
2023-05-21T03:17:48.598Z,23.1
2023-05-21T03:18:50.624Z,23.1
2023-05-21T03:19:52.706Z,23.1
2023-05-21T03:20:54.592Z,23.1
2023-05-21T03:21:56.185Z,23.1
2023-05-21T03:22:57.883Z,23.1
2023-05-21T03:23:59.567Z,23.1
2023-05-21T03:25:01.214Z,23.1
2023-05-21T03:26:03.132Z,23.1
2023-05-21T03:27:05.022Z,23.1
2023-05-21T03:28:06.659Z,23.1
2023-05-21T03:29:08.364Z,23.1
2023-05-21T03:30:09.959Z,23.1
2023-05-21T03:31:11.560Z,23.1
2023-05-21T03:32:13.282Z,23.1
2023-05-21T03:33:15.767Z,23.1
2023-05-21T03:34:17.543Z,23.1
2023-05-21T03:35:19.122Z,23.1
2023-05-21T03:36:21.024Z,23.1
2023-05-21T03:37:22.935Z,23.1
2023-05-21T03:38:24.554Z,23.1
2023-05-21T03:39:26.233Z,23.1
2023-05-21T03:40:27.850Z,23.1
2023-05-21T03:41:29.535Z,23.1
2023-05-21T03:42:31.324Z,23.1
2023-05-21T03:43:33.234Z,23.1
2023-05-21T03:44:34.984Z,23.1
2023-05-21T03:45:36.872Z,23.1
2023-05-21T03:46:42.188Z,23.1
2023-05-21T03:47:44.223Z,23.1
2023-05-21T03:48:46.180Z,23.1
2023-05-21T03:49:47.933Z,23.1
2023-05-21T03:50:49.555Z,23.1
2023-05-21T03:51:51.475Z,23.1
2023-05-21T03:52:53.084Z,23.1
2023-05-21T03:53:54.706Z,23.1
2023-05-21T03:54:56.322Z,23.1
2023-05-21T03:55:58.017Z,23.1
2023-05-21T03:57:00.044Z,23.1
2023-05-21T03:58:02.029Z,23.1
2023-05-21T03:59:03.911Z,23.1
2023-05-21T04:00:05.596Z,23.1
2023-05-21T04:01:07.324Z,23.1
2023-05-21T04:02:08.974Z,23.1
2023-05-21T04:03:10.941Z,23.1
2023-05-21T04:04:13.469Z,23.1
2023-05-21T04:05:15.693Z,23.1
2023-05-21T04:06:17.270Z,23.1
2023-05-21T04:07:18.859Z,23.1
2023-05-21T04:08:20.482Z,23.1
2023-05-21T04:09:22.074Z,23.1
2023-05-21T04:10:23.760Z,23.1
2023-05-21T04:11:25.327Z,23.1
2023-05-21T04:12:27.195Z,23.1
2023-05-21T04:13:28.948Z,23.1
2023-05-21T04:14:30.733Z,23.1
2023-05-21T04:15:32.356Z,23.1
2023-05-21T04:16:34.114Z,23.1
2023-05-21T04:17:36.356Z,23.1
2023-05-21T04:18:38.094Z,23.1
2023-05-21T04:19:39.778Z,23.1
2023-05-21T04:20:41.739Z,23.1
2023-05-21T04:21:43.361Z,23.1
2023-05-21T04:22:44.979Z,23.1
2023-05-21T04:23:46.575Z,23.1
2023-05-21T04:24:48.253Z,23.1
2023-05-21T04:25:49.948Z,23
2023-05-21T04:26:51.588Z,23
2023-05-21T04:27:53.204Z,23.1
2023-05-21T04:28:54.864Z,23.1
2023-05-21T04:29:56.564Z,23.1
2023-05-21T04:30:58.166Z,23.1
2023-05-21T04:31:59.997Z,23.1
2023-05-21T04:33:01.694Z,23.1
2023-05-21T04:34:03.617Z,23.1
2023-05-21T04:35:05.207Z,23
2023-05-21T04:36:06.790Z,23.1
2023-05-21T04:37:08.369Z,23.1
2023-05-21T04:38:09.986Z,23.1
2023-05-21T04:39:11.618Z,23.1
2023-05-21T04:40:13.208Z,23.1
2023-05-21T04:41:15.126Z,23.1
2023-05-21T04:42:16.793Z,23.1
2023-05-21T04:43:18.553Z,23.1
2023-05-21T04:44:20.535Z,23.1
2023-05-21T04:45:22.171Z,23.1
2023-05-21T04:46:23.805Z,23.1
2023-05-21T04:47:25.635Z,23.1
2023-05-21T04:48:27.555Z,23.1
2023-05-21T04:49:29.230Z,23.1
2023-05-21T04:50:31.001Z,23.1
2023-05-21T04:51:32.760Z,23.1
2023-05-21T04:52:34.335Z,23.1
2023-05-21T04:53:35.940Z,23.1
2023-05-21T04:54:37.596Z,23.1
2023-05-21T04:55:39.158Z,23.1
2023-05-21T04:56:40.838Z,23.1
2023-05-21T04:57:42.452Z,23.1
2023-05-21T04:58:44.098Z,23.1
2023-05-21T04:59:45.847Z,23.1
2023-05-21T05:00:47.574Z,23.1
2023-05-21T05:01:49.356Z,23.1
2023-05-21T05:02:51.184Z,23.2
2023-05-21T05:03:53.399Z,23.1
2023-05-21T05:04:55.668Z,23.1
2023-05-21T05:05:57.322Z,23.1
2023-05-21T05:06:58.995Z,23.1
2023-05-21T05:08:00.634Z,23.2
2023-05-21T05:09:02.244Z,23.2
2023-05-21T05:10:03.936Z,23.2
2023-05-21T05:11:05.514Z,23.2
2023-05-21T05:12:07.183Z,23.1
2023-05-21T05:13:08.827Z,23.1
2023-05-21T05:14:10.500Z,23.1
2023-05-21T05:15:12.259Z,23.1
2023-05-21T05:16:13.919Z,23.1
2023-05-21T05:17:15.779Z,23.1
2023-05-21T05:18:17.405Z,23.1
2023-05-21T05:19:19.100Z,23.1
2023-05-21T05:20:21.125Z,23.1
2023-05-21T05:21:22.846Z,23.1
2023-05-21T05:22:24.401Z,23.1
2023-05-21T05:23:26.039Z,23.1
2023-05-21T05:24:27.615Z,23.1
2023-05-21T05:25:29.232Z,23.1
2023-05-21T05:26:30.870Z,23.1
2023-05-21T05:27:32.498Z,23.1
2023-05-21T05:28:34.146Z,23.1
2023-05-21T05:29:35.727Z,23.1
2023-05-21T05:30:37.613Z,23.2
2023-05-21T05:31:39.760Z,23.2
2023-05-21T05:32:42.014Z,23.2
2023-05-21T05:33:43.879Z,23.2
2023-05-21T05:34:45.485Z,23.2
2023-05-21T05:35:47.064Z,23.2
2023-05-21T05:36:48.711Z,23.2
2023-05-21T05:37:50.384Z,23.2
2023-05-21T05:38:52.001Z,23.2
2023-05-21T05:39:53.629Z,23.2
2023-05-21T05:40:55.507Z,23.2
2023-05-21T05:41:57.324Z,23.2
2023-05-21T05:42:59.040Z,23.2
2023-05-21T05:44:00.632Z,23.2
2023-05-21T05:45:02.232Z,23.2
2023-05-21T05:46:03.946Z,23.2
2023-05-21T05:47:06.112Z,23.2
2023-05-21T05:48:07.706Z,23.2
2023-05-21T05:49:09.736Z,23.2
2023-05-21T05:50:11.436Z,23.2
2023-05-21T05:51:13.391Z,23.2
2023-05-21T05:52:15.121Z,23.2
2023-05-21T05:53:16.806Z,23.2
2023-05-21T05:54:18.671Z,23.2
2023-05-21T05:55:20.303Z,23.2
2023-05-21T05:56:21.921Z,23.2
2023-05-21T05:57:23.552Z,23.2
2023-05-21T05:58:25.239Z,23.2
2023-05-21T05:59:27.145Z,23.2
2023-05-21T06:00:28.864Z,23.3
2023-05-21T06:01:30.611Z,23.3
2023-05-21T06:02:32.418Z,23.2
2023-05-21T06:03:34.899Z,23.2
2023-05-21T06:04:37.283Z,23.2
2023-05-21T06:05:39.140Z,23.3
2023-05-21T06:06:42.308Z,23.3
2023-05-21T06:07:43.932Z,23.3
2023-05-21T06:08:45.690Z,23.3
2023-05-21T06:09:47.458Z,23.3
2023-05-21T06:10:49.066Z,23.3
2023-05-21T06:11:50.721Z,23.4
2023-05-21T06:12:52.373Z,23.4
2023-05-21T06:13:54.287Z,23.4
2023-05-21T06:14:55.880Z,23.4
2023-05-21T06:15:57.495Z,23.4
2023-05-21T06:16:59.380Z,23.5
2023-05-21T06:18:01.032Z,23.5
2023-05-21T06:19:03.092Z,23.5
2023-05-21T06:20:05.204Z,23.5
2023-05-21T06:21:06.872Z,23.6
2023-05-21T06:22:08.526Z,23.6
2023-05-21T06:23:10.408Z,23.6
2023-05-21T06:24:12.136Z,23.6
2023-05-21T06:25:14.035Z,23.6
2023-05-21T06:26:15.925Z,23.6
2023-05-21T06:27:17.483Z,23.6
2023-05-21T06:28:19.238Z,23.6
2023-05-21T06:29:20.871Z,23.6
2023-05-21T06:30:22.478Z,23.6
2023-05-21T06:31:24.363Z,23.6
2023-05-21T06:32:26.415Z,23.6
2023-05-21T06:33:28.533Z,23.6
2023-05-21T06:34:31.096Z,23.6
2023-05-21T06:35:32.881Z,23.6
2023-05-21T06:36:34.485Z,23.6
2023-05-21T06:37:36.391Z,23.6
2023-05-21T06:38:38.012Z,23.6
2023-05-21T06:39:39.714Z,23.6
2023-05-21T06:40:41.354Z,23.7
2023-05-21T06:41:43.257Z,23.6
2023-05-21T06:42:45.217Z,23.7
2023-05-21T06:43:47.064Z,23.7
2023-05-21T06:44:48.952Z,23.7
2023-05-21T06:45:50.739Z,23.7
2023-05-21T06:46:52.581Z,23.7
2023-05-21T06:47:54.380Z,23.7
2023-05-21T06:48:56.234Z,23.7
2023-05-21T06:49:57.859Z,23.7
2023-05-21T06:50:59.478Z,23.7
2023-05-21T06:52:01.149Z,23.8
2023-05-21T06:53:02.756Z,23.8
2023-05-21T06:54:04.422Z,23.8
2023-05-21T06:55:06.116Z,23.8
2023-05-21T06:56:07.835Z,23.8
2023-05-21T06:57:09.481Z,23.8
2023-05-21T06:58:11.209Z,23.9
2023-05-21T06:59:12.799Z,24
2023-05-21T07:00:14.620Z,24
2023-05-21T07:01:16.311Z,24.1
2023-05-21T07:02:18.512Z,24.1
2023-05-21T07:03:21.102Z,24.1
2023-05-21T07:04:23.475Z,24.1
2023-05-21T07:05:25.159Z,24.1
2023-05-21T07:06:26.813Z,24.2
2023-05-21T07:07:28.443Z,24.2
2023-05-21T07:08:30.093Z,24.3
2023-05-21T07:09:31.720Z,24.3
2023-05-21T07:10:33.355Z,24.3
2023-05-21T07:11:35.058Z,24.3
2023-05-21T07:12:36.655Z,24.3
2023-05-21T07:13:38.246Z,24.3
2023-05-21T07:14:40.115Z,24.3
2023-05-21T07:15:41.807Z,24.3
2023-05-21T07:16:43.476Z,24.4
2023-05-21T07:17:45.419Z,24.4
2023-05-21T07:18:47.585Z,24.5
2023-05-21T07:19:49.325Z,24.5
2023-05-21T07:20:50.941Z,24.5
2023-05-21T07:21:52.671Z,24.6
2023-05-21T07:22:54.506Z,24.6
2023-05-21T07:23:56.392Z,24.6
2023-05-21T07:24:58.276Z,24.6
2023-05-21T07:26:00.210Z,24.6
2023-05-21T07:27:04.697Z,24.7
2023-05-21T07:28:27.801Z,24.7
2023-05-21T07:29:29.389Z,24.7
2023-05-21T07:30:31.043Z,24.7
2023-05-21T07:31:32.721Z,24.8
2023-05-21T07:32:35.155Z,24.8
2023-05-21T07:33:37.469Z,24.8
2023-05-21T07:34:39.103Z,24.8
2023-05-21T07:35:40.714Z,24.8
2023-05-21T07:36:42.406Z,24.8
2023-05-21T07:37:44.015Z,24.8
2023-05-21T07:38:45.825Z,24.9
2023-05-21T07:39:47.461Z,24.9
2023-05-21T07:40:49.080Z,24.9
2023-05-21T07:41:50.703Z,24.9
2023-05-21T07:42:52.315Z,24.9
2023-05-21T07:43:53.934Z,24.9
2023-05-21T07:44:55.584Z,24.9
2023-05-21T07:45:57.432Z,24.9
2023-05-21T07:46:59.279Z,25
2023-05-21T07:48:00.948Z,25
2023-05-21T07:49:03.266Z,25
2023-05-21T07:50:04.912Z,25
2023-05-21T07:51:06.554Z,25
2023-05-21T07:52:08.257Z,25
2023-05-21T07:53:10.226Z,25
2023-05-21T07:54:12.236Z,25
2023-05-21T07:55:13.882Z,25
2023-05-21T07:56:15.529Z,25
2023-05-21T07:57:17.196Z,25
2023-05-21T07:58:18.851Z,25.1
2023-05-21T07:59:20.958Z,25.1
2023-05-21T08:00:22.589Z,25.1
2023-05-21T08:01:24.162Z,25.1
2023-05-21T08:02:25.914Z,25.1
2023-05-21T08:03:28.292Z,25.1
2023-05-21T08:04:30.934Z,25.1
2023-05-21T08:05:33.567Z,25.1
2023-05-21T08:06:35.581Z,25.1
2023-05-21T08:07:37.225Z,25.1
2023-05-21T08:08:38.890Z,25.1
2023-05-21T08:09:40.542Z,25.1
2023-05-21T08:10:42.345Z,25.1
2023-05-21T08:11:44.053Z,25.1
2023-05-21T08:12:45.690Z,25.1
2023-05-21T08:13:47.404Z,25.2
2023-05-21T08:14:49.037Z,25.2
2023-05-21T08:15:53.006Z,25.1
2023-05-21T08:16:55.392Z,25.1
2023-05-21T08:17:57.058Z,25.2
2023-05-21T08:18:59.188Z,25.2
2023-05-21T08:20:00.953Z,25.2
2023-05-21T08:21:02.799Z,25.2
2023-05-21T08:22:04.660Z,25.2
2023-05-21T08:23:06.561Z,25.2
2023-05-21T08:24:08.455Z,25.1
2023-05-21T08:25:10.194Z,25.1
2023-05-21T08:26:12.037Z,25.1
2023-05-21T08:27:13.900Z,25.1
2023-05-21T08:28:15.801Z,25.1
2023-05-21T08:29:17.429Z,25.1
2023-05-21T08:30:19.036Z,25.2
2023-05-21T08:31:20.744Z,25.2
2023-05-21T08:32:23.139Z,25.2
2023-05-21T08:33:25.104Z,25.2
2023-05-21T08:34:26.943Z,25.1
2023-05-21T08:35:28.805Z,25.1
2023-05-21T08:36:30.781Z,25.1
2023-05-21T08:37:32.454Z,25.1
2023-05-21T08:38:34.332Z,25.1
2023-05-21T08:39:36.106Z,25.1
2023-05-21T08:40:38.266Z,25.1
2023-05-21T08:41:39.958Z,25.1
2023-05-21T08:42:41.651Z,25.1
2023-05-21T08:43:43.494Z,25.1
2023-05-21T08:44:45.136Z,25.1
2023-05-21T08:45:46.814Z,25.1
2023-05-21T08:46:48.565Z,25.1
2023-05-21T08:47:50.269Z,25.1
2023-05-21T08:48:52.364Z,25.1
2023-05-21T08:49:54.278Z,25.2
2023-05-21T08:50:56.033Z,25.2
2023-05-21T08:51:57.962Z,25.2
2023-05-21T08:52:59.855Z,25.2
2023-05-21T08:54:01.720Z,25.2
2023-05-21T08:55:03.452Z,25.2
2023-05-21T08:56:05.413Z,25.2
2023-05-21T08:57:07.195Z,25.2
2023-05-21T08:58:09.086Z,25.2
2023-05-21T08:59:11.336Z,25.2
2023-05-21T09:00:13.186Z,25.2
2023-05-21T09:01:14.848Z,25.2
2023-05-21T09:02:16.530Z,25.2
2023-05-21T09:03:18.609Z,25.2
2023-05-21T09:04:21.836Z,25.2
2023-05-21T09:05:24.078Z,25.2
2023-05-21T09:06:26.012Z,25.2
2023-05-21T09:07:27.983Z,25.2
2023-05-21T09:08:29.765Z,25.2
2023-05-21T09:09:31.421Z,25.2
2023-05-21T09:10:33.328Z,25.2
2023-05-21T09:11:35.253Z,25.2
2023-05-21T09:12:36.923Z,25.2
2023-05-21T09:13:39.032Z,25.2
2023-05-21T09:14:40.884Z,25.2
2023-05-21T09:15:42.590Z,25.2
2023-05-21T09:16:44.463Z,25.3
2023-05-21T09:17:46.405Z,25.3
2023-05-21T09:18:48.416Z,25.3
2023-05-21T09:19:50.387Z,25.3
2023-05-21T09:20:52.301Z,25.3
2023-05-21T09:21:54.199Z,25.3
2023-05-21T09:22:56.103Z,25.3
2023-05-21T09:23:57.909Z,25.3
2023-05-21T09:24:59.613Z,25.3
2023-05-21T09:26:01.512Z,25.3
2023-05-21T09:27:03.178Z,25.3
2023-05-21T09:28:04.770Z,25.3
2023-05-21T09:29:06.516Z,25.3
2023-05-21T09:30:08.274Z,25.3
2023-05-21T09:31:10.228Z,25.3
2023-05-21T09:32:12.239Z,25.2
2023-05-21T09:33:14.163Z,25.2
2023-05-21T09:34:16.288Z,25.2
2023-05-21T09:35:18.156Z,25.2
2023-05-21T09:36:20.000Z,25.3
2023-05-21T09:37:27.312Z,25.3
2023-05-21T09:38:29.849Z,25.3
2023-05-21T09:39:31.698Z,25.3
2023-05-21T09:40:33.655Z,25.3
2023-05-21T09:41:36.000Z,25.2
2023-05-21T09:42:37.880Z,25.2
2023-05-21T09:43:39.717Z,25.2
2023-05-21T09:44:41.323Z,25.2
2023-05-21T09:45:43.224Z,25.2
2023-05-21T09:46:44.994Z,25.2
2023-05-21T09:47:47.026Z,25.2
2023-05-21T09:48:49.039Z,25.2
2023-05-21T09:49:53.861Z,25.2
2023-05-21T09:50:55.721Z,25.2
2023-05-21T09:51:57.643Z,25.3
2023-05-21T09:52:59.533Z,25.3
2023-05-21T09:54:01.982Z,25.3
2023-05-21T09:55:03.681Z,25.3
2023-05-21T09:56:05.389Z,25.3
2023-05-21T09:57:06.985Z,25.3
2023-05-21T09:58:08.684Z,25.3
2023-05-21T09:59:10.522Z,25.3
2023-05-21T10:00:12.537Z,25.3
2023-05-21T10:01:14.141Z,25.3
2023-05-21T10:02:16.180Z,25.3
2023-05-21T10:03:18.475Z,25.3
2023-05-21T10:04:20.448Z,25.3
2023-05-21T10:05:22.503Z,25.3
2023-05-21T10:06:24.092Z,25.3
2023-05-21T10:07:25.691Z,25.3
2023-05-21T10:08:27.920Z,25.3
2023-05-21T10:09:29.538Z,25.3
2023-05-21T10:10:31.222Z,25.3
2023-05-21T10:11:33.336Z,25.3
2023-05-21T10:12:34.935Z,25.3
2023-05-21T10:13:36.554Z,25.3
2023-05-21T10:14:38.131Z,25.3
2023-05-21T10:15:39.792Z,25.3
2023-05-21T10:16:41.547Z,25.2
2023-05-21T10:17:43.728Z,25.2
2023-05-21T10:18:45.707Z,25.2
2023-05-21T10:19:47.396Z,25.2
2023-05-21T10:20:49.000Z,25.2
2023-05-21T10:21:51.997Z,25.2
2023-05-21T10:22:54.379Z,25.2
2023-05-21T10:23:56.066Z,25.2
2023-05-21T10:24:57.728Z,25.2
2023-05-21T10:25:59.448Z,25.2
2023-05-21T10:27:01.082Z,25.2
2023-05-21T10:28:02.656Z,25.2
2023-05-21T10:29:04.236Z,25.2
2023-05-21T10:30:05.913Z,25.2
2023-05-21T10:31:07.498Z,25.1
2023-05-21T10:32:09.334Z,25.1
2023-05-21T10:33:11.483Z,25.1
2023-05-21T10:34:13.415Z,25.1
2023-05-21T10:35:15.036Z,25.1
2023-05-21T10:36:16.627Z,25.1
2023-05-21T10:37:18.334Z,25.1
2023-05-21T10:38:19.941Z,25.1
2023-05-21T10:39:21.626Z,25.1
2023-05-21T10:40:23.279Z,25.1
2023-05-21T10:41:27.604Z,25.1
2023-05-21T10:42:29.391Z,25.1
2023-05-21T10:43:31.023Z,25.1
2023-05-21T10:44:32.717Z,25.1
2023-05-21T10:45:34.339Z,25.1
2023-05-21T10:46:36.331Z,25.1
2023-05-21T10:47:37.952Z,25.1
2023-05-21T10:48:39.959Z,25.1
2023-05-21T10:49:41.639Z,25.1
2023-05-21T10:50:43.246Z,25
2023-05-21T10:51:45.022Z,25
2023-05-21T10:52:46.660Z,25
2023-05-21T10:53:48.279Z,25.1
2023-05-21T10:54:49.935Z,25
2023-05-21T10:55:51.787Z,25
2023-05-21T10:56:53.514Z,25
2023-05-21T10:57:55.123Z,24.9
2023-05-21T10:58:56.757Z,24.9
2023-05-21T10:59:58.362Z,24.9
2023-05-21T11:00:59.973Z,24.9
2023-05-21T11:02:01.924Z,24.9
2023-05-21T11:03:03.949Z,24.9
2023-05-21T11:04:06.418Z,24.9
2023-05-21T11:05:08.090Z,24.9
2023-05-21T11:06:09.717Z,24.9
2023-05-21T11:07:11.610Z,24.9
2023-05-21T11:08:13.340Z,24.9
2023-05-21T11:09:14.939Z,24.9
2023-05-21T11:10:16.558Z,24.9
2023-05-21T11:11:18.228Z,24.9
2023-05-21T11:12:19.889Z,24.9
2023-05-21T11:13:21.620Z,24.9
2023-05-21T11:14:23.674Z,24.9
2023-05-21T11:15:25.299Z,24.9
2023-05-21T11:16:26.920Z,24.9
2023-05-21T11:17:28.627Z,24.9
2023-05-21T11:18:30.724Z,24.9
2023-05-21T11:19:34.108Z,24.9
2023-05-21T11:20:36.907Z,24.9
2023-05-21T11:21:39.539Z,24.9
2023-05-21T11:22:41.198Z,25
2023-05-21T11:23:43.022Z,25
2023-05-21T11:24:44.614Z,24.9
2023-05-21T11:25:47.430Z,24.9
2023-05-21T11:26:49.174Z,25
2023-05-21T11:27:50.863Z,24.9
2023-05-21T11:28:52.539Z,25
2023-05-21T11:29:54.180Z,25
2023-05-21T11:30:55.791Z,25
2023-05-21T11:31:57.471Z,25
2023-05-21T11:32:59.166Z,24.9
2023-05-21T11:34:01.069Z,24.9
2023-05-21T11:35:02.983Z,24.9
2023-05-21T11:36:04.566Z,24.9
2023-05-21T11:37:06.361Z,24.9
2023-05-21T11:38:07.963Z,24.9
2023-05-21T11:39:09.832Z,24.9
2023-05-21T11:40:14.012Z,24.9
2023-05-21T11:41:15.667Z,24.9
2023-05-21T11:42:17.364Z,24.9
2023-05-21T11:43:18.959Z,24.9
2023-05-21T11:44:20.807Z,24.9
2023-05-21T11:45:22.399Z,24.9
2023-05-21T11:46:24.031Z,24.9
2023-05-21T11:47:26.460Z,24.9
2023-05-21T11:48:29.461Z,24.9
2023-05-21T11:49:34.230Z,24.9
2023-05-21T11:50:35.996Z,24.9
2023-05-21T11:51:38.731Z,24.8
2023-05-21T11:52:40.369Z,24.8
2023-05-21T11:53:44.062Z,24.8
2023-05-21T11:54:46.240Z,24.8
2023-05-21T11:55:48.138Z,24.8
2023-05-21T11:56:49.747Z,24.8
2023-05-21T11:57:51.394Z,24.8
2023-05-21T11:58:53.391Z,24.9
2023-05-21T11:59:54.992Z,24.9
2023-05-21T12:00:56.703Z,24.9
2023-05-21T12:01:58.319Z,24.9
2023-05-21T12:03:00.089Z,24.9
2023-05-21T12:04:02.108Z,24.9
2023-05-21T12:05:04.594Z,24.9
2023-05-21T12:06:06.448Z,24.8
2023-05-21T12:07:08.583Z,24.8
2023-05-21T12:08:10.176Z,24.8
2023-05-21T12:09:11.776Z,24.8
2023-05-21T12:10:13.676Z,24.8
2023-05-21T12:11:15.582Z,24.8
2023-05-21T12:12:17.231Z,24.8
2023-05-21T12:13:18.836Z,24.8
2023-05-21T12:14:20.554Z,24.8
2023-05-21T12:15:22.804Z,24.8
2023-05-21T12:16:24.897Z,24.8
2023-05-21T12:17:26.866Z,24.8
2023-05-21T12:18:28.602Z,24.8
2023-05-21T12:19:30.383Z,24.8
2023-05-21T12:20:32.593Z,24.8
2023-05-21T12:21:34.204Z,24.8
2023-05-21T12:22:35.899Z,24.8
2023-05-21T12:23:37.592Z,24.8
2023-05-21T12:24:39.204Z,24.8
2023-05-21T12:25:40.874Z,24.8
2023-05-21T12:26:42.436Z,24.7
2023-05-21T12:27:44.113Z,24.7
2023-05-21T12:28:45.754Z,24.7
2023-05-21T12:29:47.404Z,24.7
2023-05-21T12:30:49.030Z,24.7
2023-05-21T12:31:50.818Z,24.7
2023-05-21T12:32:52.776Z,24.7
2023-05-21T12:33:54.992Z,24.7
2023-05-21T12:34:56.612Z,24.7
2023-05-21T12:35:58.335Z,24.7
2023-05-21T12:37:00.261Z,24.7
2023-05-21T12:38:01.850Z,24.7
2023-05-21T12:39:03.514Z,24.7
2023-05-21T12:40:05.106Z,24.7
2023-05-21T12:41:06.845Z,24.7
2023-05-21T12:42:08.760Z,24.6
2023-05-21T12:43:10.461Z,24.7
2023-05-21T12:44:12.108Z,24.7
2023-05-21T12:45:13.748Z,24.7
2023-05-21T12:46:16.025Z,24.7
2023-05-21T12:47:18.213Z,24.7
2023-05-21T12:48:19.867Z,24.7
2023-05-21T12:49:21.522Z,24.7
2023-05-21T12:50:23.168Z,24.7
2023-05-21T12:51:24.790Z,24.7
2023-05-21T12:52:26.426Z,24.7
2023-05-21T12:53:28.170Z,24.7
2023-05-21T12:54:29.813Z,24.7
2023-05-21T12:55:31.413Z,24.7
2023-05-21T12:56:33.076Z,24.7
2023-05-21T12:57:34.693Z,24.7
2023-05-21T12:58:36.352Z,24.7
2023-05-21T12:59:38.027Z,24.7
2023-05-21T13:00:39.963Z,24.7
2023-05-21T13:01:42.789Z,24.7
2023-05-21T13:02:45.039Z,24.7
2023-05-21T13:03:47.266Z,24.7
2023-05-21T13:04:49.262Z,24.7
2023-05-21T13:05:50.896Z,24.7
2023-05-21T13:06:52.486Z,24.7
2023-05-21T13:07:54.097Z,24.7
2023-05-21T13:08:55.728Z,24.7
2023-05-21T13:09:57.368Z,24.7
2023-05-21T13:10:58.990Z,24.7
2023-05-21T13:12:00.661Z,24.7
2023-05-21T13:13:02.386Z,24.7
2023-05-21T13:14:04.036Z,24.7
2023-05-21T13:15:06.182Z,24.7
2023-05-21T13:16:07.923Z,24.7
2023-05-21T13:17:10.125Z,24.7
2023-05-21T13:18:12.017Z,24.7
2023-05-21T13:19:14.410Z,24.7
2023-05-21T13:20:16.619Z,24.7
2023-05-21T13:21:18.250Z,24.7
2023-05-21T13:22:19.836Z,24.7
2023-05-21T13:23:21.443Z,24.7
2023-05-21T13:24:23.056Z,24.7
2023-05-21T13:25:25.106Z,24.7
2023-05-21T13:26:27.096Z,24.7
2023-05-21T13:27:28.937Z,24.7
2023-05-21T13:28:30.603Z,24.7
2023-05-21T13:29:32.187Z,24.7
2023-05-21T13:30:33.828Z,24.7
2023-05-21T13:31:35.531Z,24.7
2023-05-21T13:32:37.240Z,24.7
2023-05-21T13:33:39.633Z,24.7
2023-05-21T13:34:42.312Z,24.7
2023-05-21T13:35:44.157Z,24.7
2023-05-21T13:36:45.945Z,24.7
2023-05-21T13:37:47.567Z,24.7
2023-05-21T13:38:49.204Z,24.7
2023-05-21T13:39:50.941Z,24.7
2023-05-21T13:40:52.595Z,24.7
2023-05-21T13:41:54.279Z,24.7
2023-05-21T13:42:55.893Z,24.7
2023-05-21T13:43:57.488Z,24.7
2023-05-21T13:44:59.132Z,24.7
2023-05-21T13:46:00.907Z,24.7